Time;durP1;ratioP1;P1;durP2;ratioP2;P2;SDS_P1;SDS_P2;PMS_P1;PMS_P2;Temp;Humidity;BMP_temperature;BMP_pressure;BME280_temperature;BME280_humidity;BME280_pressure;Samples;Min_cycle;Max_cycle;Signal;HPM_P1;HPM_P2
2021/12/15 00:01:51;;;;;;;0.60;0.60;;;10.30;99.90;10.60;102793.00;;;;4997488;28;20249;-74
2021/12/15 00:04:18;;;;;;;0.40;0.40;;;10.40;99.90;10.80;102788.00;;;;5014351;28;20156;-75
2021/12/15 00:06:43;;;;;;;2.00;1.90;;;10.40;99.90;10.20;102731.00;;;;4980877;28;20297;-75
2021/12/15 00:09:18;;;;;;;1.77;1.63;;;10.30;99.90;9.80;102800.00;;;;5013394;28;20270;-74
2021/12/15 00:11:46;;;;;;;0.30;0.30;;;10.00;99.90;10.30;102792.00;;;;5031242;28;20383;-74
2021/12/15 00:14:20;;;;;;;0.30;0.30;;;10.10;99.90;10.00;102803.00;;;;5013618;28;20568;-74
2021/12/15 00:16:49;;;;;;;0.40;0.40;;;10.00;99.90;10.40;102798.00;;;;4997555;28;20603;-74
2021/12/15 00:19:16;;;;;;;2.27;2.10;;;10.20;99.90;10.10;102787.00;;;;4997487;28;20190;-74
2021/12/15 00:21:44;;;;;;;0.27;0.27;;;10.10;99.90;10.10;102795.00;;;;5013960;28;20285;-75
2021/12/15 00:24:18;;;;;;;0.30;0.30;;;10.10;99.90;10.30;102776.00;;;;5014842;28;20176;-74
2021/12/15 00:26:44;;;;;;;1.67;1.63;;;10.10;99.90;10.50;102739.00;;;;5014384;28;20246;-74
2021/12/15 00:29:12;;;;;;;0.30;0.30;;;10.30;99.90;10.20;102795.00;;;;4997804;28;20250;-74
2021/12/15 00:31:37;;;;;;;3.60;2.07;;;10.10;99.90;10.50;102773.00;;;;5012363;28;20262;-75
2021/12/15 00:34:07;;;;;;;1.30;1.30;;;10.20;99.90;10.30;102784.00;;;;5013657;28;20218;-74
2021/12/15 00:36:34;;;;;;;0.50;0.50;;;10.20;99.90;10.10;102725.00;;;;4998076;28;20183;-74
2021/12/15 00:39:03;;;;;;;0.30;0.30;;;10.10;99.90;10.30;102786.00;;;;5010736;28;20269;-75
2021/12/15 00:41:32;;;;;;;0.30;0.30;;;10.10;99.90;10.60;102737.00;;;;4994959;28;20180;-74
2021/12/15 00:43:58;;;;;;;0.83;0.77;;;10.30;99.90;10.30;102779.00;;;;4995452;28;20208;-74
2021/12/15 00:46:24;;;;;;;1.87;1.77;;;10.30;99.90;9.90;102758.00;;;;4993758;28;20185;-75
2021/12/15 00:48:53;;;;;;;1.20;1.20;;;10.10;99.90;9.80;102780.00;;;;4994209;28;20513;-74
2021/12/15 00:51:20;;;;;;;3.50;2.63;;;9.90;99.90;9.90;102755.00;;;;4993367;28;20255;-74
2021/12/15 00:53:52;;;;;;;0.30;0.30;;;9.90;99.90;9.80;102781.00;;;;4993634;28;20674;-74
2021/12/15 00:56:21;;;;;;;2.03;0.53;;;9.90;99.90;9.90;102779.00;;;;5026625;28;20279;-74
2021/12/15 00:58:58;;;;;;;0.40;0.40;;;9.90;99.90;9.80;102761.00;;;;4994514;28;20245;-74
2021/12/15 01:01:26;;;;;;;1.33;1.23;;;9.80;99.90;9.90;102734.00;;;;5013150;28;20223;-73
2021/12/15 01:03:56;;;;;;;0.20;0.20;;;9.80;99.90;10.00;102775.00;;;;5012905;28;20194;-74
2021/12/15 01:06:30;;;;;;;0.50;0.50;;;9.90;99.90;10.40;102782.00;;;;5013717;28;20173;-73
2021/12/15 01:09:11;;;;;;;1.27;1.27;;;10.00;99.90;9.90;102742.00;;;;5013431;28;20655;-73
2021/12/15 01:20:03;;;;;;;0.40;0.40;;;9.90;99.90;10.50;102794.00;;;;5013124;28;20177;-73
2021/12/15 01:22:40;;;;;;;1.20;0.87;;;10.10;99.90;10.40;102771.00;;;;5014461;28;20274;-73
2021/12/15 01:25:24;;;;;;;0.50;0.50;;;10.10;99.90;10.10;102774.00;;;;5013367;28;20186;-73
2021/12/15 01:27:57;;;;;;;0.30;0.30;;;10.00;99.90;10.10;102780.00;;;;4996420;28;20189;-73
2021/12/15 01:30:38;;;;;;;12.33;11.83;;;10.00;99.90;10.10;102789.00;;;;5013546;28;20218;-73
2021/12/15 01:33:05;;;;;;;0.70;0.70;;;10.00;99.90;9.80;102745.00;;;;4993272;28;20218;-75
2021/12/15 01:35:38;;;;;;;0.70;0.70;;;9.90;99.90;10.20;102778.00;;;;4993442;28;20220;-75
2021/12/15 01:38:05;;;;;;;1.13;1.13;;;10.00;99.90;10.40;102785.00;;;;4993372;28;20521;-76
2021/12/15 01:40:38;;;;;;;0.30;0.30;;;10.10;99.90;10.40;102791.00;;;;4993377;28;20308;-75
2021/12/15 01:43:30;;;;;;;1.17;1.17;;;10.10;99.90;9.90;102769.00;;;;5008453;28;20193;-76
2021/12/15 01:49:12;;;;;;;1.03;0.77;;;10.00;99.90;9.60;102790.00;;;;4993402;28;20199;-74
2021/12/15 01:51:43;;;;;;;2.27;2.17;;;9.90;99.90;9.70;102797.00;;;;4993088;28;20228;-74
2021/12/15 01:54:17;;;;;;;1.97;1.30;;;9.80;99.90;10.00;102787.00;;;;4993127;28;20181;-74
2021/12/15 01:56:52;;;;;;;1.03;1.03;;;9.90;99.90;9.70;102787.00;;;;5009738;28;20186;-76
2021/12/15 01:59:25;;;;;;;6.67;3.27;;;9.80;99.90;9.50;102779.00;;;;5008821;28;20177;-74
2021/12/15 02:02:12;;;;;;;0.63;0.63;;;9.70;99.90;9.40;102796.00;;;;4979900;28;20279;-73
2021/12/15 02:04:39;;;;;;;3.67;3.47;;;9.60;99.90;9.50;102794.00;;;;4993398;28;20177;-73
2021/12/15 02:07:08;;;;;;;2.77;0.87;;;9.60;99.90;9.40;102800.00;;;;5008230;28;20237;-74
2021/12/15 02:12:08;;;;;;;1.00;1.00;;;9.60;99.90;9.50;102797.00;;;;4992238;28;20251;-74
2021/12/15 02:14:34;;;;;;;0.83;0.83;;;9.60;99.90;9.70;102799.00;;;;4992472;28;20277;-74
2021/12/15 02:17:05;;;;;;;1.07;1.07;;;9.60;99.90;9.70;102807.00;;;;4991937;28;20276;-74
2021/12/15 02:19:39;;;;;;;1.30;0.90;;;9.60;99.90;9.90;102801.00;;;;4977756;28;20226;-73
2021/12/15 02:22:06;;;;;;;5.83;1.80;;;9.70;99.90;9.80;102811.00;;;;4992575;28;20198;-75
2021/12/15 02:24:39;;;;;;;2.53;0.97;;;9.70;99.90;9.60;102803.00;;;;5008731;28;20195;-76
2021/12/15 02:27:14;;;;;;;1.00;1.00;;;9.70;99.90;9.50;102813.00;;;;4992893;28;20247;-76
2021/12/15 02:29:57;;;;;;;0.37;0.37;;;9.60;99.90;9.60;102794.00;;;;4992013;28;20636;-76
2021/12/15 02:32:56;;;;;;;0.20;0.20;;;9.70;99.90;9.70;102755.00;;;;5003388;28;20207;-76
2021/12/15 02:38:09;;;;;;;2.17;1.67;;;9.60;99.90;9.50;102811.00;;;;5012937;28;20654;-73
2021/12/15 02:40:45;;;;;;;1.80;1.70;;;9.60;99.90;10.10;102776.00;;;;5011541;28;20178;-74
2021/12/15 02:43:15;;;;;;;0.40;0.40;;;9.80;99.90;9.90;102804.00;;;;5011440;28;20248;-74
2021/12/15 02:45:47;;;;;;;0.30;0.30;;;9.80;99.90;10.10;102798.00;;;;5013394;28;20183;-73
2021/12/15 02:48:18;;;;;;;0.73;0.73;;;10.00;99.90;9.90;102768.00;;;;5013127;28;20180;-73
2021/12/15 02:50:44;;;;;;;5.30;5.00;;;10.00;99.90;10.40;102801.00;;;;5012400;28;20522;-73
2021/12/15 02:53:17;;;;;;;2.20;1.27;;;10.00;99.90;10.20;102769.00;;;;5011308;28;20207;-73
2021/12/15 02:55:51;;;;;;;0.67;0.67;;;10.00;99.90;10.10;102802.00;;;;5011784;28;20179;-73
2021/12/15 02:58:33;;;;;;;0.30;0.30;;;10.00;99.90;10.10;102801.00;;;;5011831;28;20173;-73
2021/12/15 03:01:19;;;;;;;0.83;0.70;;;9.90;99.90;10.50;102796.00;;;;5020563;28;20207;-73
2021/12/15 03:06:39;;;;;;;0.30;0.30;;;10.10;99.90;10.20;102801.00;;;;5031284;28;20184;-74
2021/12/15 03:17:27;;;;;;;2.37;1.30;;;9.90;99.90;9.90;102798.00;;;;5031714;28;20248;-75
2021/12/15 03:19:56;;;;;;;6.57;6.10;;;9.90;99.90;9.70;102743.00;;;;5018367;28;20218;-75
2021/12/15 03:22:24;;;;;;;1.53;1.53;;;9.80;99.90;9.90;102804.00;;;;5035716;28;20188;-74
2021/12/15 03:24:53;;;;;;;1.43;1.43;;;9.80;99.90;9.70;102806.00;;;;5035878;28;20262;-74
2021/12/15 03:33:15;;;;;;;0.27;0.27;;;9.80;99.90;9.70;102806.00;;;;5018302;28;20708;-75
2021/12/15 03:36:12;;;;;;;7.20;3.37;;;9.70;99.90;9.40;102773.00;;;;5024842;28;20230;-75
2021/12/15 03:38:42;;;;;;;1.83;1.73;;;9.60;99.90;9.80;102775.00;;;;5034595;28;20189;-75
2021/12/15 03:41:22;;;;;;;2.83;2.63;;;9.70;99.90;9.80;102787.00;;;;5034448;28;20727;-73
2021/12/15 03:43:50;;;;;;;0.40;0.40;;;9.70;99.90;10.00;102826.00;;;;5018706;28;20190;-74
2021/12/15 03:46:25;;;;;;;0.50;0.50;;;9.80;99.90;10.30;102813.00;;;;5035073;28;20174;-74
2021/12/15 03:48:52;;;;;;;2.47;1.43;;;9.90;99.90;10.70;102815.00;;;;5034823;28;20271;-74
2021/12/15 03:51:23;;;;;;;0.40;0.40;;;10.10;99.90;10.10;102814.00;;;;5034371;28;20189;-75
2021/12/15 03:53:53;;;;;;;0.30;0.30;;;10.10;99.90;10.60;102822.00;;;;5017515;28;20201;-75
2021/12/15 03:56:24;;;;;;;0.30;0.30;;;10.10;99.90;10.40;102821.00;;;;5017684;28;20604;-75
2021/12/15 03:58:56;;;;;;;1.40;1.30;;;10.20;99.90;10.70;102825.00;;;;5035838;28;20244;-74
2021/12/15 04:01:33;;;;;;;6.17;2.93;;;10.30;99.90;9.80;102813.00;;;;5018116;28;20267;-74
2021/12/15 04:04:07;;;;;;;0.20;0.20;;;10.00;99.90;9.90;102815.00;;;;5034395;28;20179;-73
2021/12/15 04:06:44;;;;;;;3.53;3.23;;;9.90;99.90;10.00;102813.00;;;;5018371;28;20173;-74
2021/12/15 04:09:17;;;;;;;1.63;1.60;;;9.90;99.90;9.70;102788.00;;;;5034272;28;20188;-73
2021/12/15 04:11:46;;;;;;;0.87;0.87;;;9.80;99.90;9.60;102824.00;;;;5034417;28;20204;-73
2021/12/15 04:14:21;;;;;;;0.70;0.70;;;9.80;99.90;9.80;102819.00;;;;5034749;28;20169;-74
2021/12/15 04:17:03;;;;;;;0.73;0.73;;;9.80;99.90;9.80;102827.00;;;;5018341;28;20201;-74
2021/12/15 04:19:34;;;;;;;1.17;1.17;;;9.80;99.90;10.20;102814.00;;;;5019837;28;20253;-74
2021/12/15 04:22:01;;;;;;;2.20;1.73;;;9.90;99.90;10.10;102785.00;;;;5017286;28;20187;-75
2021/12/15 04:24:32;;;;;;;0.63;0.63;;;9.90;99.90;10.40;102824.00;;;;5033698;28;20264;-73
2021/12/15 04:27:03;;;;;;;1.27;1.27;;;10.20;99.90;10.20;102824.00;;;;5034491;28;20179;-73
2021/12/15 04:29:32;;;;;;;1.80;1.70;;;10.00;99.90;10.00;102824.00;;;;5017974;28;20189;-74
2021/12/15 04:32:13;;;;;;;0.30;0.30;;;10.00;99.90;10.10;102832.00;;;;5017456;28;20225;-74
2021/12/15 04:34:45;;;;;;;0.60;0.60;;;10.00;99.90;10.20;102779.00;;;;5017694;28;20185;-73
2021/12/15 04:37:11;;;;;;;2.17;1.97;;;10.10;99.90;10.40;102829.00;;;;5033992;28;20174;-74
2021/12/15 04:39:37;;;;;;;0.30;0.30;;;10.10;99.90;10.20;102827.00;;;;5033857;28;20200;-73
2021/12/15 04:42:05;;;;;;;0.30;0.30;;;10.10;99.90;10.20;102829.00;;;;5034838;28;20174;-74
2021/12/15 04:44:32;;;;;;;0.83;0.83;;;10.10;99.90;10.10;102839.00;;;;5033929;28;20268;-73
2021/12/15 04:47:10;;;;;;;0.40;0.40;;;10.00;99.90;10.20;102837.00;;;;5016980;28;20281;-73
2021/12/15 04:49:50;;;;;;;0.93;0.77;;;10.00;99.90;10.10;102824.00;;;;5033742;28;20162;-73
2021/12/15 04:52:24;;;;;;;0.87;0.87;;;10.00;99.90;10.40;102825.00;;;;5034865;28;20201;-73
2021/12/15 04:54:53;;;;;;;0.30;0.30;;;10.10;99.90;10.80;102840.00;;;;5017079;28;20191;-73
2021/12/15 04:57:21;;;;;;;0.30;0.30;;;10.30;99.90;10.80;102826.00;;;;5033100;28;20182;-74
2021/12/15 04:59:50;;;;;;;0.50;0.50;;;10.40;99.90;10.90;102843.00;;;;5033742;28;20185;-73
2021/12/15 05:02:22;;;;;;;0.40;0.40;;;10.50;99.90;10.50;102843.00;;;;5033429;28;20246;-73
2021/12/15 05:04:50;;;;;;;0.30;0.30;;;10.40;99.90;10.40;102851.00;;;;5033073;28;20215;-74
2021/12/15 05:07:20;;;;;;;0.97;0.97;;;10.40;99.90;10.50;102848.00;;;;5016367;28;20179;-73
2021/12/15 05:09:50;;;;;;;0.40;0.40;;;10.30;99.90;10.20;102827.00;;;;5016675;28;20199;-73
2021/12/15 05:12:19;;;;;;;7.33;7.10;;;10.30;99.90;10.30;102836.00;;;;5016948;28;20583;-74
2021/12/15 05:14:51;;;;;;;0.67;0.67;;;10.30;99.90;10.30;102825.00;;;;5016060;28;20179;-73
2021/12/15 05:17:19;;;;;;;0.30;0.30;;;10.30;99.90;10.60;102841.00;;;;5033043;28;20195;-73
2021/12/15 05:19:47;;;;;;;0.30;0.30;;;10.30;99.90;10.30;102842.00;;;;5033248;28;20202;-73
2021/12/15 05:22:14;;;;;;;0.60;0.60;;;10.30;99.90;10.60;102842.00;;;;5016574;28;20630;-73
2021/12/15 05:24:42;;;;;;;0.67;0.53;;;10.30;99.90;10.40;102842.00;;;;5015793;28;20188;-74
2021/12/15 05:27:15;;;;;;;0.30;0.30;;;10.30;99.90;10.70;102801.00;;;;5032894;28;20262;-72
2021/12/15 05:29:47;;;;;;;0.30;0.30;;;10.40;99.90;10.30;102840.00;;;;5016537;28;20301;-72
2021/12/15 05:32:18;;;;;;;2.20;0.83;;;10.30;99.90;10.50;102843.00;;;;5015563;28;20355;-72
2021/12/15 05:34:47;;;;;;;0.40;0.40;;;10.40;99.90;10.50;102848.00;;;;5033008;28;20266;-73
2021/12/15 05:37:13;;;;;;;3.03;2.93;;;10.30;99.90;10.30;102845.00;;;;5032702;28;20519;-73
2021/12/15 05:39:41;;;;;;;5.73;4.57;;;10.30;99.90;10.40;102846.00;;;;5016536;28;20563;-73
2021/12/15 05:42:08;;;;;;;0.40;0.40;;;10.30;99.90;10.80;102809.00;;;;5031664;28;20660;-74
2021/12/15 05:44:34;;;;;;;0.80;0.80;;;10.40;99.90;10.90;102835.00;;;;5015904;28;20276;-73
2021/12/15 05:47:03;;;;;;;1.90;1.80;;;10.60;99.90;10.20;102846.00;;;;5032417;28;20182;-74
2021/12/15 05:49:29;;;;;;;0.70;0.70;;;10.40;99.90;10.30;102808.00;;;;5032591;28;20185;-74
2021/12/15 05:51:56;;;;;;;1.30;1.27;;;10.30;99.90;10.40;102808.00;;;;5015996;28;20206;-74
2021/12/15 05:54:22;;;;;;;0.57;0.57;;;10.30;99.90;10.40;102849.00;;;;5016152;28;20231;-75
2021/12/15 05:56:49;;;;;;;0.30;0.30;;;10.50;99.90;10.70;102856.00;;;;5032708;28;20524;-72
2021/12/15 05:59:17;;;;;;;0.40;0.40;;;10.50;99.90;10.40;102810.00;;;;5032365;28;20219;-73
2021/12/15 06:01:45;;;;;;;0.30;0.30;;;10.30;99.90;10.30;102845.00;;;;5016181;28;20194;-75
2021/12/15 06:04:14;;;;;;;0.30;0.30;;;10.40;99.90;10.90;102847.00;;;;5015823;28;20189;-75
2021/12/15 06:06:40;;;;;;;0.50;0.50;;;10.50;99.90;11.00;102859.00;;;;5031859;28;20221;-74
2021/12/15 06:09:10;;;;;;;0.30;0.30;;;10.70;99.90;10.30;102818.00;;;;5031625;28;20222;-74
2021/12/15 06:11:37;;;;;;;3.03;2.93;;;10.40;99.90;10.70;102850.00;;;;5015232;28;20212;-74
2021/12/15 06:14:04;;;;;;;0.30;0.30;;;10.50;99.90;11.00;102857.00;;;;5032562;28;20229;-75
2021/12/15 06:16:30;;;;;;;2.77;2.27;;;10.50;99.90;10.90;102848.00;;;;5015651;28;20179;-74
2021/12/15 06:18:57;;;;;;;2.13;2.03;;;10.70;99.90;11.40;102821.00;;;;5015477;28;20181;-73
2021/12/15 06:21:24;;;;;;;1.80;1.70;;;10.80;99.90;11.00;102861.00;;;;5032267;28;20648;-73
2021/12/15 06:23:52;;;;;;;0.30;0.30;;;10.80;99.90;11.20;102863.00;;;;5031451;28;20182;-73
2021/12/15 06:26:19;;;;;;;0.30;0.30;;;10.80;99.90;11.20;102860.00;;;;5015629;28;20192;-74
2021/12/15 06:28:47;;;;;;;0.63;0.63;;;10.90;99.90;10.90;102824.00;;;;5032198;28;20162;-74
2021/12/15 06:31:16;;;;;;;0.53;0.53;;;10.80;99.90;10.70;102859.00;;;;5032108;28;20248;-74
2021/12/15 06:33:43;;;;;;;1.23;1.23;;;10.60;99.90;10.70;102853.00;;;;5014838;28;20183;-73
2021/12/15 06:36:13;;;;;;;0.63;0.63;;;10.60;99.90;10.30;102868.00;;;;5014679;28;20281;-73
2021/12/15 06:38:47;;;;;;;0.20;0.20;;;10.50;99.90;11.10;102878.00;;;;5031354;28;20178;-74
2021/12/15 06:41:15;;;;;;;1.60;1.50;;;10.60;99.90;10.40;102864.00;;;;5015232;28;20273;-74
2021/12/15 06:43:47;;;;;;;1.17;1.17;;;10.40;99.90;10.10;102831.00;;;;5032119;28;20163;-73
2021/12/15 06:59:52;;;;;;;0.60;0.60;;;10.50;99.90;10.70;102901.00;;;;5035843;28;20209;-72
2021/12/15 07:02:19;;;;;;;3.70;0.53;;;10.50;99.90;10.50;102905.00;;;;5034567;28;20216;-73
2021/12/15 07:04:46;;;;;;;2.30;2.20;;;10.50;99.90;10.90;102891.00;;;;5035569;28;20178;-72
2021/12/15 07:07:12;;;;;;;0.50;0.50;;;10.60;99.90;10.40;102903.00;;;;5037147;28;20162;-73
2021/12/15 07:09:39;;;;;;;0.73;0.73;;;10.60;99.90;10.40;102900.00;;;;5035508;28;20177;-74
2021/12/15 07:12:09;;;;;;;0.30;0.30;;;10.50;99.90;10.90;102903.00;;;;5035384;28;20280;-72
2021/12/15 07:14:35;;;;;;;1.30;1.17;;;10.60;99.90;10.60;102913.00;;;;5035468;28;20175;-72
2021/12/15 07:17:14;;;;;;;1.57;1.57;;;10.60;99.90;10.90;102918.00;;;;5036423;28;20192;-72
2021/12/15 07:25:05;;;;;;;0.30;0.30;;;10.50;99.90;11.00;102923.00;;;;5035410;28;20175;-72
2021/12/15 07:27:34;;;;;;;0.30;0.30;;;10.60;99.90;11.00;102905.00;;;;5018790;28;20183;-72
2021/12/15 07:30:03;;;;;;;0.50;0.50;;;10.70;99.90;11.20;102920.00;;;;5019011;28;20185;-72
2021/12/15 07:32:31;;;;;;;0.77;0.77;;;10.80;99.90;11.00;102906.00;;;;5017709;28;20218;-73
2021/12/15 07:34:58;;;;;;;2.00;0.80;;;10.80;99.90;10.90;102918.00;;;;5018595;28;20189;-73
2021/12/15 07:37:27;;;;;;;2.00;1.90;;;10.80;99.90;10.80;102874.00;;;;5018710;28;20182;-74
2021/12/15 07:40:04;;;;;;;0.30;0.30;;;10.70;99.90;11.00;102919.00;;;;5034705;28;20165;-74
2021/12/15 07:42:41;;;;;;;0.50;0.50;;;10.70;99.90;11.20;102925.00;;;;5031832;28;20175;-74
2021/12/15 07:45:14;;;;;;;1.90;1.40;;;10.80;99.90;11.30;102921.00;;;;4995778;28;20180;-74
2021/12/15 07:47:44;;;;;;;10.47;7.13;;;10.90;99.90;11.00;102925.00;;;;5011025;28;20182;-74
2021/12/15 07:50:15;;;;;;;1.10;1.10;;;10.90;99.90;11.20;102928.00;;;;4995521;28;20212;-74
2021/12/15 07:52:41;;;;;;;0.57;0.57;;;11.00;99.90;10.70;102935.00;;;;5011338;28;20249;-73
2021/12/15 07:55:07;;;;;;;4.50;2.07;;;10.90;99.90;10.70;102925.00;;;;4995595;28;20200;-74
2021/12/15 07:57:38;;;;;;;1.27;0.73;;;10.80;99.90;10.70;102937.00;;;;5011367;28;20218;-72
2021/12/15 08:00:08;;;;;;;0.50;0.50;;;10.60;99.90;11.10;102931.00;;;;4994797;28;20180;-73
2021/12/15 08:02:35;;;;;;;0.40;0.40;;;10.90;99.90;10.60;102946.00;;;;4995178;28;20199;-74
2021/12/15 08:05:03;;;;;;;2.83;2.73;;;10.60;99.90;11.00;102907.00;;;;5010374;28;20176;-72
2021/12/15 08:07:29;;;;;;;3.60;1.90;;;10.70;99.90;11.40;102935.00;;;;5011353;28;20183;-72
2021/12/15 08:09:55;;;;;;;0.97;0.87;;;10.90;99.90;11.70;102916.00;;;;4996263;28;20172;-72
2021/12/15 08:12:21;;;;;;;1.03;1.03;;;11.10;99.90;10.90;102941.00;;;;5010279;28;20321;-72
2021/12/15 08:14:46;;;;;;;0.40;0.40;;;10.90;99.90;11.30;102948.00;;;;5009693;28;20318;-72
2021/12/15 08:17:12;;;;;;;4.07;3.80;;;11.00;99.90;11.10;102933.00;;;;4996262;28;20632;-72
2021/12/15 08:19:38;;;;;;;1.17;1.17;;;10.90;99.90;11.10;102939.00;;;;5011074;28;20185;-72
2021/12/15 08:22:04;;;;;;;6.80;4.93;;;11.00;99.90;11.30;102950.00;;;;5010457;28;20204;-72
2021/12/15 08:24:31;;;;;;;0.63;0.63;;;11.00;99.90;10.90;102950.00;;;;5010937;28;20177;-72
2021/12/15 08:26:56;;;;;;;0.43;0.43;;;10.90;99.90;10.80;102933.00;;;;4994164;28;20600;-72
2021/12/15 08:29:23;;;;;;;1.37;1.27;;;10.80;99.90;10.70;102942.00;;;;5010387;28;20207;-72
2021/12/15 08:31:52;;;;;;;0.80;0.80;;;10.70;99.90;11.10;102918.00;;;;4994419;28;20679;-72
2021/12/15 08:34:19;;;;;;;0.30;0.30;;;10.80;99.90;11.30;102956.00;;;;5010886;28;20203;-72
2021/12/15 08:36:50;;;;;;;0.30;0.30;;;11.00;99.90;10.90;102947.00;;;;4995778;28;20192;-72
2021/12/15 08:39:18;;;;;;;0.83;0.60;;;10.80;99.90;11.00;102955.00;;;;5010676;28;20176;-73
2021/12/15 08:41:45;;;;;;;0.63;0.63;;;10.90;99.90;11.20;102962.00;;;;5010972;28;20227;-73
2021/12/15 08:44:11;;;;;;;0.30;0.30;;;11.00;99.90;10.70;102946.00;;;;4994075;28;20184;-73
2021/12/15 08:46:42;;;;;;;0.77;0.77;;;10.80;99.90;11.00;102959.00;;;;4995535;28;20241;-72
2021/12/15 08:49:16;;;;;;;0.50;0.50;;;10.80;99.90;10.70;102947.00;;;;5010370;28;20212;-72
2021/12/15 08:51:46;;;;;;;0.40;0.40;;;10.80;99.90;10.70;102945.00;;;;5009694;28;20215;-73
2021/12/15 08:54:18;;;;;;;0.30;0.30;;;10.70;99.90;11.10;102936.00;;;;5010662;28;20186;-73
2021/12/15 08:56:48;;;;;;;0.37;0.37;;;10.70;99.90;10.90;102953.00;;;;5010098;28;20278;-72
2021/12/15 08:59:15;;;;;;;0.90;0.80;;;10.80;99.90;11.00;102953.00;;;;5010432;28;20191;-73
2021/12/15 09:01:46;;;;;;;0.67;0.67;;;10.90;99.90;10.90;102950.00;;;;4977759;28;20197;-73
2021/12/15 09:04:21;;;;;;;0.30;0.30;;;10.80;99.90;11.40;102959.00;;;;4994708;28;20219;-73
2021/12/15 09:06:55;;;;;;;1.30;0.97;;;11.00;99.90;11.80;102965.00;;;;5010441;28;20205;-73
2021/12/15 09:09:22;;;;;;;0.30;0.30;;;11.20;99.90;11.00;102960.00;;;;5010158;28;20586;-73
2021/12/15 09:11:50;;;;;;;0.30;0.30;;;10.90;99.90;11.10;102964.00;;;;4977300;28;20264;-72
2021/12/15 09:14:19;;;;;;;1.27;1.03;;;10.90;99.90;11.40;102974.00;;;;4977175;28;20657;-73
2021/12/15 09:16:52;;;;;;;0.63;0.63;;;11.00;99.90;11.30;102961.00;;;;5009511;28;20726;-73
2021/12/15 09:19:19;;;;;;;1.00;1.00;;;11.20;99.90;11.20;102962.00;;;;5010202;28;20181;-73
2021/12/15 09:21:57;;;;;;;1.53;1.43;;;11.20;99.90;10.90;102976.00;;;;5012992;28;20720;-65
2021/12/15 09:24:28;;;;;;;0.93;0.93;;;11.10;99.90;11.20;102969.00;;;;5012601;28;20195;-83
2021/12/15 09:26:57;;;;;;;1.33;1.23;;;10.90;99.90;11.20;102952.00;;;;5029923;28;20183;-79
2021/12/15 09:29:31;;;;;;;5.27;2.80;;;11.10;99.90;10.80;102953.00;;;;5029296;28;20197;-78
2021/12/15 09:32:01;;;;;;;0.30;0.30;;;11.00;99.90;10.60;102987.00;;;;5028596;28;20230;-88
2021/12/15 09:34:30;;;;;;;4.50;1.77;;;10.80;99.90;10.90;102991.00;;;;5013649;28;20197;-90
2021/12/15 09:37:04;;;;;;;4.17;1.60;;;10.80;99.90;11.30;102986.00;;;;5013669;28;20688;-90
2021/12/15 09:39:36;;;;;;;4.23;3.90;;;11.00;99.90;10.80;102965.00;;;;5013574;28;20639;-90
2021/12/15 09:42:07;;;;;;;0.30;0.30;;;10.80;99.90;10.80;102981.00;;;;5029554;28;20297;-90
2021/12/15 09:44:43;;;;;;;3.27;1.23;;;10.80;99.90;10.90;102998.00;;;;5013133;28;20273;-90
2021/12/15 09:47:39;;;;;;;2.60;1.27;;;11.00;99.90;10.90;103001.00;;;;5013298;28;20630;-91
2021/12/15 10:04:31;;;;;;;1.03;1.00;;;11.40;99.90;11.60;102990.00;;;;5012405;28;20192;-88
2021/12/15 10:18:37;;;;;;;1.80;0.70;;;11.50;99.90;11.50;103009.00;;;;5012722;28;20175;-88
2021/12/15 10:33:28;;;;;;;0.23;0.23;;;10.90;99.90;10.90;102970.00;;;;5091402;27;20538;-91
2021/12/15 10:36:10;;;;;;;0.30;0.30;;;10.90;99.90;11.40;103010.00;;;;5073884;28;20210;-92
2021/12/15 10:38:59;;;;;;;2.10;1.80;;;11.10;99.90;11.10;103002.00;;;;5069934;28;20235;-92
2021/12/15 10:41:39;;;;;;;1.13;1.13;;;11.20;99.90;11.10;102999.00;;;;5069366;28;20189;-87
2021/12/15 10:44:17;;;;;;;2.97;0.70;;;11.10;99.90;10.60;103011.00;;;;5086016;28;20180;-78
2021/12/15 10:47:05;;;;;;;6.57;4.83;;;10.80;99.90;10.60;103012.00;;;;5085432;28;20189;-77
2021/12/15 10:49:39;;;;;;;1.17;1.17;;;10.80;99.90;10.80;103005.00;;;;5084969;28;20698;-79
2021/12/15 10:52:11;;;;;;;2.93;2.73;;;10.80;99.90;11.60;103018.00;;;;5086001;28;20234;-79
2021/12/15 10:54:56;;;;;;;0.63;0.63;;;11.20;99.90;11.80;103021.00;;;;5085613;28;20183;-72
2021/12/15 10:57:38;;;;;;;2.87;2.33;;;11.30;99.90;10.70;103010.00;;;;5084229;28;20185;-72
2021/12/15 11:00:19;;;;;;;5.93;5.43;;;11.00;99.90;11.30;103008.00;;;;5084940;28;20180;-72
2021/12/15 11:02:48;;;;;;;6.50;5.07;;;11.10;99.90;10.50;103007.00;;;;5064745;28;20227;-65
2021/12/15 11:05:20;;;;;;;2.80;2.53;;;10.90;99.90;10.50;103012.00;;;;5069033;28;20234;-72
2021/12/15 11:07:55;;;;;;;5.40;4.80;;;10.80;99.90;10.70;103009.00;;;;5085985;28;20181;-72
2021/12/15 11:10:27;;;;;;;0.63;0.63;;;10.80;99.90;11.00;103000.00;;;;5085802;28;20631;-72
2021/12/15 11:13:08;;;;;;;0.93;0.93;;;10.90;99.90;10.80;102971.00;;;;5069833;28;20672;-72
2021/12/15 11:15:47;;;;;;;0.30;0.30;;;10.90;99.90;10.80;103007.00;;;;5068429;28;20184;-72
2021/12/15 11:18:17;;;;;;;3.47;3.17;;;10.80;99.90;10.60;103006.00;;;;5068779;28;20178;-72
2021/12/15 11:21:02;;;;;;;0.77;0.77;;;10.70;99.90;11.20;103006.00;;;;5069707;28;20178;-73
2021/12/15 11:23:32;;;;;;;2.13;1.27;;;11.00;99.90;11.10;103006.00;;;;5068066;28;20198;-72
2021/12/15 11:26:07;;;;;;;1.03;1.03;;;11.00;99.90;11.10;102996.00;;;;5051866;28;20186;-73
2021/12/15 11:28:44;;;;;;;0.87;0.83;;;11.10;99.90;11.60;102979.00;;;;5084989;28;20169;-73
2021/12/15 11:31:20;;;;;;;7.57;4.60;;;11.20;99.90;11.00;103010.00;;;;5085481;28;20258;-74
2021/12/15 11:34:00;;;;;;;0.30;0.30;;;11.20;99.90;11.10;102964.00;;;;5084945;28;20176;-74
2021/12/15 11:36:43;;;;;;;5.33;4.73;;;11.00;99.90;10.70;103004.00;;;;5068219;28;20182;-75
2021/12/15 11:39:24;;;;;;;5.03;2.63;;;11.00;99.90;10.70;103006.00;;;;5067962;28;20290;-74
2021/12/15 11:41:53;;;;;;;2.00;1.90;;;10.90;99.90;11.60;103001.00;;;;5068279;28;20179;-74
2021/12/15 11:44:23;;;;;;;5.73;4.47;;;11.10;99.90;12.00;102994.00;;;;5056708;28;20265;-68
2021/12/15 11:46:58;;;;;;;0.20;0.20;;;11.60;99.90;11.00;103005.00;;;;5055460;28;20182;-71
2021/12/15 11:49:44;;;;;;;0.80;0.57;;;11.20;99.90;10.90;103006.00;;;;5054648;28;20604;-71
2021/12/15 11:52:15;;;;;;;0.30;0.30;;;11.20;99.90;11.00;103007.00;;;;5070794;28;20675;-71
2021/12/15 11:54:48;;;;;;;1.23;1.13;;;11.10;99.90;11.10;102956.00;;;;5070991;28;20240;-72
2021/12/15 11:57:28;;;;;;;0.40;0.40;;;11.10;99.90;11.10;102996.00;;;;5070693;28;20213;-71
2021/12/15 12:00:06;;;;;;;7.37;6.10;;;11.10;99.90;11.80;102995.00;;;;5054327;28;20205;-71
2021/12/15 12:02:41;;;;;;;1.43;0.97;;;11.50;99.90;11.00;102999.00;;;;5071104;28;20187;-71
2021/12/15 12:05:43;;;;;;;1.80;1.60;;;11.20;99.90;11.60;103000.00;;;;5054417;28;20198;-71
2021/12/15 12:08:17;;;;;;;2.17;2.07;;;11.30;99.90;10.80;102993.00;;;;5043694;28;20228;-72
2021/12/15 12:10:49;;;;;;;7.20;5.37;;;11.10;99.90;10.90;103000.00;;;;5070699;28;20178;-71
2021/12/15 12:13:28;;;;;;;3.33;3.03;;;11.10;99.90;10.70;102996.00;;;;5071021;28;20194;-70
2021/12/15 12:16:05;;;;;;;11.97;7.37;;;11.10;99.90;11.30;102957.00;;;;5069778;28;20675;-72
2021/12/15 12:18:33;;;;;;;1.70;1.60;;;11.20;99.90;10.90;103003.00;;;;5037480;28;20207;-73
2021/12/15 12:21:09;;;;;;;5.07;4.27;;;11.20;99.90;11.00;102989.00;;;;5054066;28;20193;-72
2021/12/15 12:23:40;;;;;;;1.57;1.50;;;11.10;99.90;10.70;102986.00;;;;5054524;28;20173;-72
2021/12/15 12:26:12;;;;;;;8.93;6.30;;;11.00;99.90;11.00;102988.00;;;;5070198;28;20185;-72
2021/12/15 12:28:46;;;;;;;8.17;3.63;;;11.00;99.90;10.90;102981.00;;;;5071062;28;20522;-72
2021/12/15 12:31:20;;;;;;;4.07;3.73;;;11.00;99.90;10.80;102944.00;;;;5053551;28;20219;-73
2021/12/15 12:33:50;;;;;;;0.90;0.90;;;11.00;99.90;11.10;102983.00;;;;5055437;28;20163;-72
2021/12/15 12:36:26;;;;;;;1.20;1.20;;;11.10;99.90;11.30;102948.00;;;;5053595;28;20186;-72
2021/12/15 12:39:09;;;;;;;0.20;0.20;;;11.20;99.90;11.10;102975.00;;;;5070334;28;20185;-72
2021/12/15 12:41:45;;;;;;;13.80;8.03;;;11.10;99.90;11.10;102973.00;;;;5053787;28;20183;-72